Worland, Wyoming
Current Conditions -  °F | °C
As of 11:38 AM on Monday 22 Dec 2014 (Local Time) from KWRL Reporting Station
Broken Clouds Broken Clouds  
Wind Chill: 26°   Ceiling: 6000
Heat Index: 31°   Visibility: 10mi
Dew Point: 29°   Wind: 5mph
Humidity: 92%   Direction: 260°W
Pressure: 29.81"   Gusts: NA
Location:  44.02°N, 107.95°W
Report Text: KWRL 221838Z AUTO 26004KT 10SM FEW021 SCT026 BKN060 M01/M02 A2981 RMK AO2 SNE16 P0000 T10061017
Loading
Personal Weather Stations






























Interactive Weather Map New forecast layout! Learn more

10-Day Weather Forecast

Advertisements
Track Severe Weather on mobile